createdAt,value
2019-04-11T00:00:41.728Z,3.36
2019-04-11T00:03:11.332Z,3.12
2019-04-11T00:05:41.263Z,2.93
2019-04-11T00:08:10.343Z,3.09
2019-04-11T00:10:41.558Z,3.00
2019-04-11T00:13:19.763Z,3.14
2019-04-11T00:15:42.521Z,2.70
2019-04-11T00:18:11.609Z,2.93
2019-04-11T00:20:40.623Z,2.83
2019-04-11T00:23:10.158Z,2.82
2019-04-11T00:25:39.909Z,2.74
2019-04-11T00:28:09.855Z,2.75
2019-04-11T00:30:40.008Z,2.75
2019-04-11T00:33:09.816Z,2.73
2019-04-11T00:35:39.850Z,2.63
2019-04-11T00:38:09.802Z,2.69
2019-04-11T00:40:39.548Z,2.17
2019-04-11T00:43:09.482Z,2.51
2019-04-11T00:45:38.719Z,2.57
2019-04-11T00:48:07.801Z,2.57
2019-04-11T00:50:37.214Z,2.60
2019-04-11T00:53:06.559Z,2.52
2019-04-11T00:55:35.972Z,2.26
2019-04-11T00:58:05.545Z,2.49
2019-04-11T01:00:36.528Z,2.39
2019-04-11T01:03:06.494Z,2.39
2019-04-11T01:05:35.552Z,2.31
2019-04-11T01:08:05.238Z,2.31
2019-04-11T01:10:34.718Z,2.30
2019-04-11T01:13:04.975Z,2.24
2019-04-11T01:15:34.216Z,2.10
2019-04-11T01:18:03.611Z,2.14
2019-04-11T01:20:32.888Z,2.14
2019-04-11T01:23:02.778Z,2.04
2019-04-11T01:25:32.680Z,1.99
2019-04-11T01:28:02.647Z,1.99
2019-04-11T01:30:39.189Z,2.03
2019-04-11T01:33:08.754Z,1.93
2019-04-11T01:35:37.857Z,1.92
2019-04-11T01:38:10.336Z,1.91
2019-04-11T01:40:40.118Z,1.91
2019-04-11T01:43:09.505Z,1.78
2019-04-11T01:45:38.658Z,1.54
2019-04-11T01:48:27.823Z,1.69
2019-04-11T01:50:57.136Z,1.86
2019-04-11T01:53:26.851Z,1.86
2019-04-11T01:55:56.881Z,1.78
2019-04-11T01:58:26.770Z,1.63
2019-04-11T02:01:21.140Z,1.66
2019-04-11T02:03:57.561Z,1.58
2019-04-11T02:06:26.774Z,1.58
2019-04-11T02:08:55.869Z,1.50
2019-04-11T02:11:25.599Z,1.46
2019-04-11T02:14:05.104Z,1.46
2019-04-11T02:16:25.528Z,1.48
2019-04-11T02:18:54.682Z,1.46
2019-04-11T02:21:23.636Z,1.51
2019-04-11T02:24:30.022Z,1.51
2019-04-11T02:27:08.495Z,1.38
2019-04-11T02:29:37.593Z,1.32
2019-04-11T02:32:07.558Z,1.32
2019-04-11T02:34:37.127Z,1.32
2019-04-11T02:37:07.110Z,1.05
2019-04-11T02:39:36.378Z,1.05
2019-04-11T02:42:06.559Z,1.19
2019-04-11T02:44:52.715Z,1.21
2019-04-11T02:47:11.970Z,1.25
2019-04-11T02:49:39.208Z,1.25
2019-04-11T02:52:09.429Z,1.03
2019-04-11T02:54:40.948Z,1.05
2019-04-11T02:57:11.899Z,1.03
2019-04-11T02:59:44.528Z,1.03
2019-04-11T03:02:16.453Z,0.92
2019-04-11T03:04:43.884Z,0.88
2019-04-11T03:07:14.622Z,0.96
2019-04-11T03:09:46.230Z,0.95
2019-04-11T03:12:15.590Z,0.95
2019-04-11T03:15:04.296Z,0.93
2019-04-11T03:17:23.001Z,0.86
2019-04-11T03:20:04.395Z,0.73
2019-04-11T03:22:20.315Z,0.69
2019-04-11T03:24:51.065Z,0.69
2019-04-11T03:27:22.212Z,0.66
2019-04-11T03:29:51.733Z,0.63
2019-04-11T03:33:24.958Z,0.53
2019-04-11T03:35:56.355Z,0.56
2019-04-11T03:37:53.585Z,0.59
2019-04-11T03:40:18.699Z,0.59
2019-04-11T03:42:43.082Z,0.55
2019-04-11T03:45:20.890Z,0.63
2019-04-11T03:47:40.843Z,0.52
2019-04-11T03:50:08.345Z,0.52
2019-04-11T03:52:32.830Z,0.50
2019-04-11T03:55:05.831Z,0.50
2019-04-11T03:57:34.394Z,0.49
2019-04-11T04:00:06.221Z,0.50
2019-04-11T04:02:34.937Z,0.39
2019-04-11T04:05:06.646Z,0.38
2019-04-11T04:07:36.152Z,0.44
2019-04-11T04:10:09.184Z,0.35
2019-04-11T04:12:37.909Z,0.35
2019-04-11T04:15:42.218Z,0.29
2019-04-11T04:18:16.549Z,0.29
2019-04-11T04:21:07.017Z,0.30
2019-04-11T04:23:38.699Z,0.35
2019-04-11T04:26:10.548Z,0.39
2019-04-11T04:28:40.797Z,0.18
2019-04-11T04:31:11.506Z,0.22
2019-04-11T04:33:40.666Z,0.26
2019-04-11T04:36:11.061Z,0.26
2019-04-11T04:38:42.250Z,0.31
2019-04-11T04:41:23.888Z,0.31
2019-04-11T04:43:45.638Z,0.20
2019-04-11T04:46:31.462Z,0.26
2019-04-11T04:48:47.402Z,0.16
2019-04-11T04:51:18.362Z,0.16
2019-04-11T04:53:48.093Z,0.20
2019-04-11T04:56:22.794Z,0.17
2019-04-11T04:58:48.613Z,0.06
2019-04-11T05:01:19.364Z,0.06
2019-04-11T05:03:50.876Z,0.15
2019-04-11T05:06:20.645Z,0.01
2019-04-11T05:08:52.150Z,0.00
2019-04-11T05:11:22.977Z,0.00
2019-04-11T05:13:52.073Z,0.05
2019-04-11T05:16:21.157Z,0.22
2019-04-11T05:18:50.520Z,0.22
2019-04-11T05:21:19.708Z,0.16
2019-04-11T05:23:48.733Z,0.16
2019-04-11T05:26:17.704Z,0.10
2019-04-11T05:28:46.824Z,0.10
2019-04-11T05:31:18.514Z,0.11
2019-04-11T05:33:47.677Z,0.22
2019-04-11T05:36:18.682Z,0.07
2019-04-11T05:38:48.629Z,0.31
2019-04-11T05:41:20.537Z,0.41
2019-04-11T05:43:49.390Z,0.32
2019-04-11T05:46:32.518Z,0.38
2019-04-11T05:49:09.634Z,0.42
2019-04-11T05:51:43.597Z,0.42
2019-04-11T05:54:10.612Z,0.68
2019-04-11T05:56:42.151Z,0.68
2019-04-11T05:59:17.176Z,0.77
2019-04-11T06:01:52.988Z,0.77
2019-04-11T06:04:30.247Z,0.87
2019-04-11T06:07:10.149Z,1.14
2019-04-11T06:09:41.666Z,1.14
2019-04-11T06:12:48.569Z,1.36
2019-04-11T06:15:22.999Z,1.60
2019-04-11T06:17:55.152Z,1.86
2019-04-11T06:20:35.505Z,1.83
2019-04-11T06:23:29.701Z,2.00
2019-04-11T06:26:26.955Z,2.00
2019-04-11T06:29:01.311Z,2.21
2019-04-11T06:32:01.478Z,2.17
2019-04-11T06:34:35.472Z,2.04
2019-04-11T06:37:15.001Z,2.13
2019-04-11T06:39:57.732Z,2.22
2019-04-11T06:42:39.302Z,2.22
2019-04-11T06:45:31.777Z,2.48
2019-04-11T06:48:11.573Z,2.41
2019-04-11T06:50:55.542Z,2.58
2019-04-11T06:53:36.470Z,2.66
2019-04-11T06:56:18.958Z,2.76
2019-04-11T06:59:12.875Z,2.78
2019-04-11T07:01:45.373Z,2.91
2019-04-11T07:04:19.757Z,3.06
2019-04-11T07:06:51.691Z,3.06
2019-04-11T07:09:39.435Z,3.17
2019-04-11T07:12:15.917Z,3.88
2019-04-11T07:14:55.095Z,4.20
2019-04-11T07:17:43.864Z,4.20
2019-04-11T07:20:31.444Z,4.30
2019-04-11T07:23:18.223Z,4.30
2019-04-11T07:25:51.756Z,4.71
2019-04-11T07:28:43.853Z,4.77
2019-04-11T07:31:31.981Z,5.15
2019-04-11T07:34:21.311Z,5.01
2019-04-11T07:37:08.409Z,5.34
2019-04-11T07:39:56.225Z,5.62
2019-04-11T07:42:52.846Z,5.92
2019-04-11T07:45:26.404Z,5.92
2019-04-11T07:48:02.806Z,6.28
2019-04-11T07:50:31.851Z,6.13
2019-04-11T07:53:03.134Z,6.36
2019-04-11T07:55:32.273Z,6.43
2019-04-11T07:58:33.009Z,6.93
2019-04-11T08:01:22.102Z,6.89
2019-04-11T08:04:08.870Z,6.89
2019-04-11T08:07:11.846Z,7.20
2019-04-11T08:09:46.912Z,7.24
2019-04-11T08:12:19.495Z,7.37
2019-04-11T08:15:03.034Z,7.25
2019-04-11T08:17:39.002Z,7.57
2019-04-11T08:20:25.638Z,7.57
2019-04-11T08:22:57.370Z,7.29
2019-04-11T08:25:45.224Z,7.27
2019-04-11T08:28:16.374Z,7.16
2019-04-11T08:31:15.155Z,7.38
2019-04-11T08:33:44.321Z,7.38
2019-04-11T08:36:31.702Z,7.48
2019-04-11T08:39:04.760Z,7.77
2019-04-11T08:42:07.318Z,7.57
2019-04-11T08:44:41.739Z,7.85
2019-04-11T08:47:14.545Z,7.89
2019-04-11T08:50:02.111Z,8.00
2019-04-11T08:52:46.524Z,8.30
2019-04-11T08:55:21.013Z,8.10
2019-04-11T08:57:54.035Z,8.13
2019-04-11T09:00:42.612Z,8.08
2019-04-11T09:03:16.282Z,8.08
2019-04-11T09:06:02.776Z,8.28
2019-04-11T09:08:54.921Z,8.28
2019-04-11T09:11:29.482Z,8.35
2019-04-11T09:14:26.448Z,9.07
2019-04-11T09:16:58.350Z,8.92
2019-04-11T09:19:34.825Z,9.02
2019-04-11T09:22:22.646Z,9.04
2019-04-11T09:25:17.680Z,9.37
2019-04-11T09:28:04.884Z,9.37
2019-04-11T09:31:01.124Z,9.50
2019-04-11T09:33:49.014Z,9.76
2019-04-11T09:36:40.938Z,9.78
2019-04-11T09:39:32.436Z,10.28
2019-04-11T09:42:22.988Z,10.57
2019-04-11T09:44:59.513Z,11.21
2019-04-11T09:47:50.475Z,10.86
2019-04-11T09:50:44.733Z,11.55
2019-04-11T09:53:14.199Z,11.59
2019-04-11T09:55:59.080Z,11.64
2019-04-11T09:58:28.314Z,11.64
2019-04-11T10:01:16.047Z,11.38
2019-04-11T10:03:45.921Z,11.44
2019-04-11T10:06:36.860Z,12.00
2019-04-11T10:09:08.815Z,12.00
2019-04-11T10:11:55.092Z,10.72
2019-04-11T10:14:26.755Z,12.23
2019-04-11T10:17:14.780Z,11.80
2019-04-11T10:19:46.536Z,12.77
2019-04-11T10:22:25.329Z,12.26
2019-04-11T10:25:13.303Z,10.86
2019-04-11T10:28:00.704Z,11.71
2019-04-11T10:30:48.263Z,12.55
2019-04-11T10:33:33.083Z,12.55
2019-04-11T10:36:23.439Z,12.91
2019-04-11T10:39:13.187Z,11.81
2019-04-11T10:41:46.121Z,10.71
2019-04-11T10:44:21.395Z,12.12
2019-04-11T10:47:16.462Z,12.74
2019-04-11T10:50:11.139Z,13.33
2019-04-11T10:52:45.331Z,12.97
2019-04-11T10:55:21.861Z,12.50
2019-04-11T10:58:08.848Z,12.10
2019-04-11T11:00:59.942Z,13.19
2019-04-11T11:03:34.103Z,12.78
2019-04-11T11:06:03.269Z,13.65
2019-04-11T11:08:46.332Z,12.94
2019-04-11T11:11:23.850Z,11.51
2019-04-11T11:14:19.111Z,11.52
2019-04-11T11:16:58.834Z,11.52
2019-04-11T11:19:59.303Z,10.26
2019-04-11T11:22:34.613Z,11.47
2019-04-11T11:25:23.043Z,10.79
2019-04-11T11:27:52.409Z,10.30
2019-04-11T11:30:44.779Z,11.22
2019-04-11T11:33:16.085Z,12.71
2019-04-11T11:36:04.552Z,12.56
2019-04-11T11:38:33.604Z,11.71
2019-04-11T11:41:22.584Z,11.67
2019-04-11T11:43:52.102Z,11.59
2019-04-11T11:46:50.579Z,11.09
2019-04-11T11:49:37.618Z,11.83
2019-04-11T11:52:04.726Z,11.83
2019-04-11T11:54:36.084Z,11.18
2019-04-11T11:57:24.664Z,11.18
2019-04-11T12:00:02.965Z,12.93
2019-04-11T12:02:39.661Z,13.13
2019-04-11T12:05:16.770Z,14.25
2019-04-11T12:08:12.258Z,14.25
2019-04-11T12:10:49.344Z,12.68
2019-04-11T12:13:40.757Z,11.96
2019-04-11T12:16:32.068Z,13.30
2019-04-11T12:19:41.231Z,13.30
2019-04-11T12:22:02.261Z,12.79
2019-04-11T12:24:34.628Z,12.66
2019-04-11T12:27:21.883Z,12.66
2019-04-11T12:30:23.503Z,13.42
2019-04-11T12:32:56.889Z,14.82
2019-04-11T12:35:32.634Z,13.34
2019-04-11T12:38:06.924Z,13.60
2019-04-11T12:40:57.999Z,13.60
2019-04-11T12:43:37.144Z,11.86
2019-04-11T12:46:34.009Z,12.11
2019-04-11T12:49:11.354Z,13.27
2019-04-11T12:52:05.381Z,14.12
2019-04-11T12:54:34.806Z,14.08
2019-04-11T12:57:21.705Z,14.11
2019-04-11T12:59:55.592Z,14.11
2019-04-11T13:02:46.275Z,14.97
2019-04-11T13:05:15.935Z,14.45
2019-04-11T13:08:06.853Z,14.95
2019-04-11T13:10:38.515Z,14.95
2019-04-11T13:13:25.246Z,15.31
2019-04-11T13:16:11.128Z,15.54
2019-04-11T13:19:04.978Z,15.54
2019-04-11T13:21:59.510Z,14.01
2019-04-11T13:24:53.596Z,12.85
2019-04-11T13:27:25.089Z,13.48
2019-04-11T13:30:13.036Z,15.70
2019-04-11T13:33:02.700Z,15.70
2019-04-11T13:35:59.876Z,13.26
2019-04-11T13:38:34.624Z,15.94
2019-04-11T13:41:22.581Z,16.09
2019-04-11T13:43:57.680Z,15.88
2019-04-11T13:46:48.755Z,13.86
2019-04-11T13:49:35.601Z,13.86
2019-04-11T13:52:30.217Z,13.07
2019-04-11T13:55:17.816Z,12.82
2019-04-11T13:58:05.823Z,13.60
2019-04-11T14:00:40.796Z,13.78
2019-04-11T14:03:44.330Z,14.88
2019-04-11T14:06:19.599Z,14.63
2019-04-11T14:09:23.661Z,15.49
2019-04-11T14:12:04.790Z,15.49
2019-04-11T14:14:46.520Z,15.73
2019-04-11T14:17:25.773Z,16.53
2019-04-11T14:20:06.123Z,16.53
2019-04-11T14:22:44.824Z,15.91
2019-04-11T14:25:25.293Z,14.95
2019-04-11T14:27:57.081Z,14.00
2019-04-11T14:30:47.057Z,14.00
2019-04-11T14:33:19.353Z,13.45
2019-04-11T14:36:09.727Z,12.96
2019-04-11T14:38:46.522Z,13.33
2019-04-11T14:41:19.069Z,12.84
2019-04-11T14:43:59.827Z,12.51
2019-04-11T14:46:52.002Z,13.72
2019-04-11T14:49:21.178Z,13.89
2019-04-11T14:52:08.240Z,14.64
2019-04-11T14:54:43.019Z,14.09
2019-04-11T14:57:24.222Z,14.19
2019-04-11T15:00:03.747Z,14.19
2019-04-11T15:02:45.897Z,13.15
2019-04-11T15:05:26.849Z,15.08
2019-04-11T15:07:56.567Z,14.15
2019-04-11T15:10:50.104Z,13.80
2019-04-11T15:13:22.593Z,14.06
2019-04-11T15:16:12.760Z,14.06
2019-04-11T15:18:47.695Z,13.92
2019-04-11T15:21:38.745Z,13.65
2019-04-11T15:24:08.630Z,14.01
2019-04-11T15:27:06.592Z,13.74
2019-04-11T15:29:38.563Z,13.74
2019-04-11T15:32:23.506Z,14.68
2019-04-11T15:34:57.781Z,15.35
2019-04-11T15:37:51.589Z,14.21
2019-04-11T15:40:24.178Z,13.40
2019-04-11T15:43:30.478Z,13.06
2019-04-11T15:46:08.572Z,12.98
2019-04-11T15:49:02.389Z,12.82
2019-04-11T15:51:42.506Z,13.29
2019-04-11T15:54:34.834Z,12.44
2019-04-11T15:57:32.463Z,12.63
2019-04-11T16:00:29.325Z,12.52
2019-04-11T16:03:07.007Z,12.92
2019-04-11T16:05:55.011Z,12.91
2019-04-11T16:09:01.364Z,12.82
2019-04-11T16:11:52.153Z,12.95
2019-04-11T16:14:25.076Z,12.13
2019-04-11T16:17:13.942Z,12.13
2019-04-11T16:19:50.511Z,12.92
2019-04-11T16:22:55.465Z,12.77
2019-04-11T16:25:29.027Z,12.71
2019-04-11T16:28:14.596Z,12.74
2019-04-11T16:30:48.760Z,12.20
2019-04-11T16:33:40.070Z,12.20
2019-04-11T16:36:37.069Z,12.68
2019-04-11T16:39:50.126Z,12.10
2019-04-11T16:42:26.614Z,12.15
2019-04-11T16:45:25.054Z,12.55
2019-04-11T16:48:02.899Z,11.52
2019-04-11T16:50:32.195Z,11.92
2019-04-11T16:53:01.453Z,11.99
2019-04-11T16:55:30.625Z,11.91
2019-04-11T16:57:59.709Z,11.32
2019-04-11T17:00:28.844Z,11.32
2019-04-11T17:02:57.848Z,11.17
2019-04-11T17:08:12.771Z,10.81
2019-04-11T17:11:00.583Z,10.74
2019-04-11T17:13:32.195Z,11.45
2019-04-11T17:16:01.136Z,11.45
2019-04-11T17:18:34.061Z,10.98
2019-04-11T17:21:01.211Z,11.11
2019-04-11T17:23:30.243Z,11.11
2019-04-11T17:25:59.414Z,11.28
2019-04-11T17:28:28.557Z,11.77
2019-04-11T17:30:57.733Z,11.34
2019-04-11T17:33:28.550Z,11.01
2019-04-11T17:36:01.809Z,11.21
2019-04-11T17:38:28.700Z,11.32
2019-04-11T17:40:57.863Z,10.83
2019-04-11T17:43:28.992Z,10.78
2019-04-11T17:45:58.099Z,10.48
2019-04-11T17:48:27.099Z,10.68
2019-04-11T17:50:57.657Z,10.27
2019-04-11T17:53:26.730Z,10.48
2019-04-11T17:55:55.702Z,10.48
2019-04-11T17:58:26.913Z,10.36
2019-04-11T18:01:00.281Z,10.29
2019-04-11T18:03:29.065Z,9.93
2019-04-11T18:05:58.191Z,9.93
2019-04-11T18:08:27.310Z,9.82
2019-04-11T18:10:56.710Z,9.82
2019-04-11T18:13:30.531Z,9.66
2019-04-11T18:15:56.459Z,9.69
2019-04-11T18:18:25.567Z,9.69
2019-04-11T18:20:54.660Z,9.49
2019-04-11T18:23:23.830Z,9.50
2019-04-11T18:25:53.003Z,9.20
2019-04-11T18:28:22.475Z,9.31
2019-04-11T18:30:53.717Z,9.13
2019-04-11T18:33:22.374Z,9.05
2019-04-11T18:35:51.428Z,8.96
2019-04-11T18:38:20.506Z,8.90
2019-04-11T18:40:49.559Z,8.55
2019-04-11T18:43:18.566Z,8.55
2019-04-11T18:45:47.982Z,8.38
2019-04-11T18:48:17.102Z,8.30
2019-04-11T18:50:46.161Z,8.26
2019-04-11T18:55:51.095Z,8.26
2019-04-11T18:58:20.123Z,8.04
2019-04-11T19:00:49.252Z,8.14
2019-04-11T19:03:18.404Z,7.73
2019-04-11T19:05:48.109Z,7.87
2019-04-11T19:08:17.290Z,7.99
2019-04-11T19:10:47.786Z,7.99
2019-04-11T19:13:17.567Z,7.94
2019-04-11T19:15:46.605Z,7.98
2019-04-11T19:18:16.356Z,8.08
2019-04-11T19:20:49.871Z,8.05
2019-04-11T19:23:17.368Z,8.06
2019-04-11T19:25:47.036Z,8.06
2019-04-11T19:28:16.258Z,8.08
2019-04-11T19:30:45.680Z,8.09
2019-04-11T19:33:16.230Z,8.09
2019-04-11T19:35:46.163Z,8.09
2019-04-11T19:38:25.341Z,8.09
2019-04-11T19:40:55.648Z,7.64
2019-04-11T19:43:24.705Z,8.04
2019-04-11T19:45:53.763Z,7.81
2019-04-11T19:48:25.088Z,7.98
2019-04-11T19:50:58.571Z,8.02
2019-04-11T19:53:27.274Z,8.04
2019-04-11T19:56:24.350Z,7.94
2019-04-11T19:58:53.348Z,7.62
2019-04-11T20:01:23.507Z,7.62
2019-04-11T20:03:54.027Z,7.74
2019-04-11T20:06:23.498Z,8.01
2019-04-11T20:08:52.566Z,7.68
2019-04-11T20:11:21.727Z,7.67
2019-04-11T20:13:51.231Z,7.85
2019-04-11T20:16:20.241Z,7.82
2019-04-11T20:18:51.634Z,7.88
2019-04-11T20:21:21.717Z,7.85
2019-04-11T20:23:50.725Z,7.82
2019-04-11T20:26:20.877Z,7.91
2019-04-11T20:28:51.031Z,7.90
2019-04-11T20:31:20.740Z,7.70
2019-04-11T20:33:50.109Z,7.74
2019-04-11T20:36:19.130Z,7.74
2019-04-11T20:38:48.154Z,7.68
2019-04-11T20:41:17.219Z,7.54
2019-04-11T20:43:46.212Z,7.54
2019-04-11T20:46:15.747Z,7.57
2019-04-11T20:48:44.759Z,7.65
2019-04-11T20:51:13.887Z,7.56
2019-04-11T20:53:42.870Z,7.46
2019-04-11T20:56:23.348Z,7.42
2019-04-11T20:58:42.641Z,7.32
2019-04-11T21:01:12.025Z,7.28
2019-04-11T21:03:41.008Z,7.34
2019-04-11T21:06:10.421Z,7.38
2019-04-11T21:08:39.416Z,7.30
2019-04-11T21:11:08.423Z,7.41
2019-04-11T21:13:38.348Z,7.41
2019-04-11T21:16:10.414Z,7.39
2019-04-11T21:18:39.431Z,7.18
2019-04-11T21:21:08.449Z,7.21
2019-04-11T21:23:37.444Z,7.14
2019-04-11T21:26:06.697Z,7.14
2019-04-11T21:28:35.846Z,7.03
2019-04-11T21:31:05.028Z,6.99
2019-04-11T21:33:34.953Z,7.05
2019-04-11T21:36:04.366Z,7.07
2019-04-11T21:38:33.440Z,7.11
2019-04-11T21:41:05.943Z,7.01
2019-04-11T21:43:35.886Z,7.01
2019-04-11T21:46:06.865Z,6.90
2019-04-11T21:48:36.032Z,6.94
2019-04-11T21:51:05.733Z,6.94
2019-04-11T21:53:37.031Z,6.90
2019-04-11T21:56:06.528Z,6.92
2019-04-11T21:58:35.505Z,6.81
2019-04-11T22:01:09.631Z,6.90
2019-04-11T22:03:38.817Z,6.79
2019-04-11T22:06:08.006Z,6.84
2019-04-11T22:08:38.332Z,6.84
2019-04-11T22:11:09.857Z,6.91
2019-04-11T22:13:40.462Z,6.74
2019-04-11T22:16:13.413Z,6.52
2019-04-11T22:18:39.905Z,6.46
2019-04-11T22:21:08.961Z,6.69
2019-04-11T22:23:48.345Z,6.57
2019-04-11T22:26:08.653Z,6.52
2019-04-11T22:28:37.739Z,6.10
2019-04-11T22:31:06.847Z,6.72
2019-04-11T22:33:40.609Z,6.51
2019-04-11T22:36:09.580Z,6.47
2019-04-11T22:38:38.576Z,6.49
2019-04-11T22:41:07.767Z,6.37
2019-04-11T22:43:38.220Z,6.50
2019-04-11T22:46:08.535Z,6.37
2019-04-11T22:48:39.034Z,6.39
2019-04-11T22:51:08.858Z,6.39
2019-04-11T22:53:40.787Z,6.34
2019-04-11T22:56:11.786Z,6.34
2019-04-11T22:58:43.478Z,6.31
2019-04-11T23:01:13.966Z,6.37
2019-04-11T23:03:55.454Z,6.50
2019-04-11T23:06:25.570Z,6.21
2019-04-11T23:08:54.590Z,6.21
2019-04-11T23:11:23.667Z,6.32
2019-04-11T23:13:52.788Z,6.30
2019-04-11T23:16:21.772Z,6.31
2019-04-11T23:18:50.805Z,6.31
2019-04-11T23:21:19.819Z,6.20
2019-04-11T23:23:48.900Z,6.20
2019-04-11T23:26:17.935Z,6.19
2019-04-11T23:28:47.043Z,6.24
2019-04-11T23:31:19.733Z,6.26
2019-04-11T23:33:51.705Z,6.15
2019-04-11T23:36:21.177Z,6.20
2019-04-11T23:38:52.682Z,6.20
2019-04-11T23:41:21.225Z,6.15
2019-04-11T23:43:50.517Z,6.29
2019-04-11T23:46:21.444Z,6.00
2019-04-11T23:48:54.725Z,6.00
2019-04-11T23:51:25.421Z,6.08
2019-04-11T23:53:52.586Z,5.91
2019-04-11T23:56:21.658Z,6.01
2019-04-11T23:58:50.658Z,5.88
